createdAt,value
2019-03-31T00:02:19.550Z,16.43
2019-03-31T00:04:48.515Z,16.23
2019-03-31T00:07:17.542Z,17.67
2019-03-31T00:09:46.604Z,17.03
2019-03-31T00:12:15.725Z,16.13
2019-03-31T00:14:44.785Z,17.90
2019-03-31T00:17:13.887Z,17.43
2019-03-31T00:19:42.947Z,17.60
2019-03-31T00:22:11.896Z,16.97
2019-03-31T00:24:40.892Z,17.23
2019-03-31T00:27:09.788Z,15.73
2019-03-31T00:29:38.742Z,16.40
2019-03-31T00:32:07.888Z,14.63
2019-03-31T00:34:36.963Z,14.87
2019-03-31T00:37:07.669Z,14.63
2019-03-31T00:39:37.006Z,16.70
2019-03-31T00:42:06.099Z,17.43
2019-03-31T00:44:34.991Z,18.43
2019-03-31T00:47:05.332Z,15.10
2019-03-31T00:49:34.510Z,18.50
2019-03-31T00:52:03.607Z,23.67
2019-03-31T00:54:32.879Z,22.70
2019-03-31T00:57:03.725Z,20.13
2019-03-31T00:59:32.844Z,18.60
2019-03-31T01:02:07.054Z,16.13
2019-03-31T01:04:36.430Z,16.93
2019-03-31T01:07:06.403Z,16.20
2019-03-31T01:09:35.531Z,16.70
2019-03-31T01:12:05.422Z,16.10
2019-03-31T01:14:34.707Z,17.00
2019-03-31T01:17:03.907Z,17.17
2019-03-31T01:19:33.412Z,15.40
2019-03-31T01:22:02.435Z,16.70
2019-03-31T01:24:31.463Z,18.37
2019-03-31T01:27:00.789Z,15.87
2019-03-31T01:29:29.917Z,16.50
2019-03-31T01:31:59.023Z,15.93
2019-03-31T01:34:28.014Z,15.60
2019-03-31T01:36:57.015Z,16.30
2019-03-31T01:39:27.507Z,15.97
2019-03-31T01:41:56.495Z,17.80
2019-03-31T01:44:25.407Z,16.07
2019-03-31T01:46:54.462Z,16.93
2019-03-31T01:49:23.709Z,16.27
2019-03-31T01:51:52.843Z,15.93
2019-03-31T01:54:21.943Z,15.97
2019-03-31T01:56:50.937Z,16.40
2019-03-31T01:59:19.925Z,16.17
2019-03-31T02:01:48.990Z,17.77
2019-03-31T02:04:17.951Z,18.33
2019-03-31T02:06:47.313Z,17.93
2019-03-31T02:09:16.303Z,15.90
2019-03-31T02:11:45.523Z,18.47
2019-03-31T02:14:14.405Z,16.50
2019-03-31T02:16:43.343Z,17.43
2019-03-31T02:19:12.323Z,17.23
2019-03-31T02:21:41.577Z,17.73
2019-03-31T02:24:10.623Z,15.73
2019-03-31T02:26:39.881Z,18.50
2019-03-31T02:29:09.025Z,17.53
2019-03-31T02:31:38.407Z,17.20
2019-03-31T02:34:07.465Z,18.63
2019-03-31T02:36:36.407Z,16.83
2019-03-31T02:39:05.958Z,19.33
2019-03-31T02:41:35.293Z,18.33
2019-03-31T02:44:04.551Z,17.63
2019-03-31T02:46:33.628Z,17.70
2019-03-31T02:49:02.816Z,16.90
2019-03-31T02:51:32.530Z,18.50
2019-03-31T02:54:03.729Z,18.53
2019-03-31T02:56:35.605Z,19.03
2019-03-31T02:59:06.773Z,16.90
2019-03-31T03:04:09.769Z,18.50
2019-03-31T03:06:39.644Z,18.13
2019-03-31T03:09:08.937Z,17.57
2019-03-31T03:11:38.663Z,19.10
2019-03-31T03:14:08.448Z,16.70
2019-03-31T03:16:37.611Z,17.33
2019-03-31T03:19:06.590Z,18.20
2019-03-31T03:21:35.503Z,15.47
2019-03-31T03:24:04.766Z,17.37
2019-03-31T03:26:33.823Z,15.57
2019-03-31T03:29:03.282Z,15.23
2019-03-31T03:31:32.434Z,16.70
2019-03-31T03:34:01.484Z,13.80
2019-03-31T03:36:30.447Z,18.03
2019-03-31T03:38:59.472Z,20.60
2019-03-31T03:41:28.390Z,21.60
2019-03-31T03:44:02.127Z,18.87
2019-03-31T03:46:28.137Z,18.47
2019-03-31T03:48:57.098Z,21.27
2019-03-31T03:51:26.184Z,23.07
2019-03-31T03:53:55.222Z,19.60
2019-03-31T03:56:28.718Z,19.03
2019-03-31T03:58:54.803Z,22.40
2019-03-31T04:01:26.241Z,18.30
2019-03-31T04:03:55.219Z,18.00
2019-03-31T04:06:24.313Z,19.87
2019-03-31T04:08:53.417Z,17.87
2019-03-31T04:11:26.026Z,17.83
2019-03-31T04:13:54.979Z,18.87
2019-03-31T04:16:24.212Z,19.93
2019-03-31T04:18:53.483Z,17.63
2019-03-31T04:21:22.625Z,16.50
2019-03-31T04:23:51.657Z,18.20
2019-03-31T04:26:20.648Z,17.10
2019-03-31T04:28:49.543Z,15.17
2019-03-31T04:31:18.702Z,20.10
2019-03-31T04:33:52.155Z,15.37
2019-03-31T04:36:18.533Z,15.60
2019-03-31T04:38:47.802Z,18.53
2019-03-31T04:41:17.291Z,16.30
2019-03-31T04:43:46.613Z,15.67
2019-03-31T04:46:15.729Z,15.57
2019-03-31T04:48:44.672Z,16.13
2019-03-31T04:51:14.308Z,16.50
2019-03-31T04:53:43.438Z,15.90
2019-03-31T04:56:12.486Z,15.57
2019-03-31T04:58:41.516Z,16.57
2019-03-31T05:01:10.550Z,16.97
2019-03-31T05:03:39.596Z,17.43
2019-03-31T05:06:08.646Z,17.33
2019-03-31T05:08:37.748Z,15.57
2019-03-31T05:11:06.724Z,16.30
2019-03-31T05:13:35.772Z,17.00
2019-03-31T05:16:04.792Z,21.00
2019-03-31T05:18:33.742Z,18.57
2019-03-31T05:21:02.929Z,17.13
2019-03-31T05:23:32.179Z,16.77
2019-03-31T05:26:01.299Z,16.73
2019-03-31T05:28:30.468Z,19.30
2019-03-31T05:30:59.746Z,17.77
2019-03-31T05:33:28.748Z,20.50
2019-03-31T05:35:57.759Z,15.67
2019-03-31T05:38:26.898Z,16.07
2019-03-31T05:40:56.183Z,17.20
2019-03-31T05:43:25.047Z,17.17
2019-03-31T05:45:54.164Z,16.70
2019-03-31T05:48:23.374Z,14.87
2019-03-31T05:50:52.476Z,14.77
2019-03-31T05:53:21.526Z,16.27
2019-03-31T05:55:50.596Z,16.23
2019-03-31T05:58:19.516Z,15.87
2019-03-31T06:00:51.742Z,14.80
2019-03-31T06:03:20.726Z,15.53
2019-03-31T06:05:49.779Z,17.83
2019-03-31T06:08:18.695Z,14.33
2019-03-31T06:10:47.807Z,14.53
2019-03-31T06:13:16.855Z,15.03
2019-03-31T06:15:45.992Z,17.03
2019-03-31T06:18:15.116Z,14.20
2019-03-31T06:20:44.247Z,13.83
2019-03-31T06:23:13.367Z,14.73
2019-03-31T06:25:42.664Z,14.33
2019-03-31T06:28:11.543Z,14.77
2019-03-31T06:30:40.595Z,13.93
2019-03-31T06:33:09.504Z,13.87
2019-03-31T06:35:38.525Z,15.17
2019-03-31T06:38:07.791Z,13.33
2019-03-31T06:40:36.804Z,15.50
2019-03-31T06:43:05.704Z,12.67
2019-03-31T06:45:34.911Z,12.47
2019-03-31T06:48:04.012Z,15.53
2019-03-31T06:50:32.978Z,12.50
2019-03-31T06:53:02.261Z,12.27
2019-03-31T06:55:31.276Z,11.83
2019-03-31T06:58:00.157Z,11.60
2019-03-31T07:00:29.066Z,11.30
2019-03-31T07:02:58.109Z,11.17
2019-03-31T07:05:27.031Z,11.37
2019-03-31T07:07:55.906Z,13.07
2019-03-31T07:10:24.863Z,14.50
2019-03-31T07:12:54.041Z,12.23
2019-03-31T07:15:22.909Z,14.37
2019-03-31T07:17:51.987Z,12.70
2019-03-31T07:20:20.885Z,14.83
2019-03-31T07:22:49.791Z,13.13
2019-03-31T07:25:18.814Z,12.57
2019-03-31T07:27:47.853Z,13.00
2019-03-31T07:30:17.839Z,12.20
2019-03-31T07:32:47.065Z,15.20
2019-03-31T07:35:18.757Z,15.83
2019-03-31T07:37:47.911Z,11.70
2019-03-31T07:40:17.901Z,13.20
2019-03-31T07:42:47.040Z,12.47
2019-03-31T07:45:16.295Z,13.67
2019-03-31T07:47:45.285Z,12.97
2019-03-31T07:50:14.713Z,13.27
2019-03-31T07:52:43.638Z,12.00
2019-03-31T07:55:13.057Z,11.97
2019-03-31T07:57:42.091Z,13.23
2019-03-31T08:00:12.635Z,11.90
2019-03-31T08:02:41.759Z,11.83
2019-03-31T08:05:10.987Z,13.90
2019-03-31T08:07:40.265Z,11.47
2019-03-31T08:10:09.888Z,12.23
2019-03-31T08:12:39.090Z,13.57
2019-03-31T08:15:08.641Z,12.10
2019-03-31T08:17:37.554Z,10.93
2019-03-31T08:20:07.451Z,12.60
2019-03-31T08:22:36.407Z,10.87
2019-03-31T08:25:05.606Z,11.73
2019-03-31T08:27:34.570Z,11.23
2019-03-31T08:30:04.031Z,11.97
2019-03-31T08:32:32.981Z,11.63
2019-03-31T08:35:02.103Z,11.87
2019-03-31T08:37:31.186Z,13.33
2019-03-31T08:40:00.093Z,11.63
2019-03-31T08:42:29.172Z,11.20
2019-03-31T08:44:58.272Z,13.53
2019-03-31T08:47:27.276Z,11.50
2019-03-31T08:49:56.201Z,10.57
2019-03-31T08:52:25.137Z,12.53
2019-03-31T08:54:54.095Z,11.70
2019-03-31T08:57:23.086Z,11.37
2019-03-31T08:59:52.117Z,10.60
2019-03-31T09:02:29.940Z,10.37
2019-03-31T09:04:59.012Z,10.53
2019-03-31T09:07:28.112Z,11.83
2019-03-31T09:09:57.167Z,12.40
2019-03-31T09:12:26.266Z,12.40
2019-03-31T09:14:55.424Z,10.70
2019-03-31T09:17:24.618Z,11.73
2019-03-31T09:19:53.534Z,13.00
2019-03-31T09:22:22.427Z,13.17
2019-03-31T09:24:51.538Z,14.77
2019-03-31T09:27:20.615Z,12.00
2019-03-31T09:29:49.708Z,11.40
2019-03-31T09:32:18.722Z,15.83
2019-03-31T09:34:47.752Z,14.07
2019-03-31T09:37:16.788Z,14.23
2019-03-31T09:39:45.844Z,12.17
2019-03-31T09:42:14.912Z,13.67
2019-03-31T09:44:43.896Z,12.93
2019-03-31T09:47:12.901Z,12.57
2019-03-31T09:49:41.910Z,13.13
2019-03-31T09:52:10.835Z,12.60
2019-03-31T09:54:39.753Z,12.47
2019-03-31T09:57:08.740Z,15.37
2019-03-31T09:59:37.630Z,13.17
2019-03-31T10:02:06.856Z,14.73
2019-03-31T10:04:35.872Z,14.00
2019-03-31T10:07:04.740Z,13.03
2019-03-31T10:09:33.889Z,12.67
2019-03-31T10:12:02.949Z,12.57
2019-03-31T10:14:32.027Z,13.73
2019-03-31T10:17:01.191Z,13.23
2019-03-31T10:19:30.386Z,13.87
2019-03-31T10:21:59.328Z,15.97
2019-03-31T10:24:28.372Z,17.13
2019-03-31T10:26:57.444Z,16.50
2019-03-31T10:29:26.396Z,17.03
2019-03-31T10:31:55.488Z,18.23
2019-03-31T10:34:24.607Z,15.80
2019-03-31T10:36:53.820Z,15.00
2019-03-31T10:39:22.781Z,16.47
2019-03-31T10:41:51.827Z,15.93
2019-03-31T10:44:20.891Z,15.07
2019-03-31T10:46:50.254Z,18.00
2019-03-31T10:49:19.325Z,17.30
2019-03-31T10:51:48.385Z,15.73
2019-03-31T10:54:17.587Z,14.53
2019-03-31T10:56:46.552Z,16.13
2019-03-31T10:59:15.483Z,16.63
2019-03-31T11:01:44.591Z,18.07
2019-03-31T11:04:13.619Z,20.20
2019-03-31T11:06:42.619Z,17.60
2019-03-31T11:09:11.631Z,17.83
2019-03-31T11:11:40.710Z,17.43
2019-03-31T11:14:09.793Z,15.20
2019-03-31T11:16:38.960Z,16.53
2019-03-31T11:19:08.111Z,16.67
2019-03-31T11:21:42.411Z,17.37
2019-03-31T11:24:11.410Z,19.97
2019-03-31T11:26:40.447Z,20.07
2019-03-31T11:29:09.449Z,18.27
2019-03-31T11:31:38.403Z,19.33
2019-03-31T11:34:07.313Z,17.73
2019-03-31T11:36:36.313Z,16.67
2019-03-31T11:39:06.617Z,16.23
2019-03-31T11:41:35.597Z,17.13
2019-03-31T11:44:05.207Z,15.40
2019-03-31T11:46:34.140Z,18.73
2019-03-31T11:49:03.119Z,18.53
2019-03-31T11:51:32.033Z,18.43
2019-03-31T11:54:01.125Z,19.03
2019-03-31T11:56:30.167Z,19.23
2019-03-31T11:58:59.191Z,19.53
2019-03-31T12:01:28.236Z,16.53
2019-03-31T12:03:57.104Z,15.53
2019-03-31T12:06:26.277Z,17.47
2019-03-31T12:08:55.559Z,17.00
2019-03-31T12:11:24.740Z,17.57
2019-03-31T12:13:53.715Z,17.93
2019-03-31T12:16:22.914Z,17.00
2019-03-31T12:18:51.811Z,17.30
2019-03-31T12:21:20.968Z,15.43
2019-03-31T12:23:49.976Z,16.97
2019-03-31T12:26:18.941Z,18.10
2019-03-31T12:28:47.938Z,15.80
2019-03-31T12:31:17.458Z,16.23
2019-03-31T12:33:46.486Z,19.77
2019-03-31T12:36:15.480Z,18.50
2019-03-31T12:38:44.489Z,16.60
2019-03-31T12:41:13.350Z,16.63
2019-03-31T12:43:42.453Z,18.53
2019-03-31T12:46:11.562Z,18.70
2019-03-31T12:48:40.769Z,17.60
2019-03-31T12:51:09.737Z,18.47
2019-03-31T12:53:38.977Z,17.30
2019-03-31T12:56:07.926Z,17.77
2019-03-31T12:58:36.862Z,16.33
2019-03-31T13:01:05.896Z,18.63
2019-03-31T13:03:35.100Z,17.83
2019-03-31T13:06:04.240Z,16.60
2019-03-31T13:08:33.198Z,16.60
2019-03-31T13:11:02.253Z,15.80
2019-03-31T13:13:31.485Z,19.20
2019-03-31T13:16:00.428Z,16.07
2019-03-31T13:18:29.368Z,14.80
2019-03-31T13:20:58.380Z,17.00
2019-03-31T13:23:27.356Z,17.27
2019-03-31T13:25:56.291Z,16.23
2019-03-31T13:28:25.398Z,15.27
2019-03-31T13:30:54.460Z,14.10
2019-03-31T13:33:23.380Z,15.30
2019-03-31T13:35:53.392Z,17.00
2019-03-31T13:38:22.552Z,15.10
2019-03-31T13:40:51.472Z,12.73
2019-03-31T13:43:20.436Z,14.53
2019-03-31T13:45:49.376Z,12.23
2019-03-31T13:48:18.468Z,14.67
2019-03-31T13:50:47.418Z,13.37
2019-03-31T13:53:16.594Z,13.57
2019-03-31T13:55:45.755Z,13.67
2019-03-31T13:58:15.546Z,14.67
2019-03-31T14:00:45.147Z,13.13
2019-03-31T14:03:14.064Z,13.77
2019-03-31T14:05:42.963Z,13.27
2019-03-31T14:08:25.020Z,12.65
2019-03-31T14:10:42.778Z,13.60
2019-03-31T14:13:11.870Z,15.30
2019-03-31T14:15:40.931Z,14.00
2019-03-31T14:18:09.853Z,12.87
2019-03-31T14:20:38.762Z,13.13
2019-03-31T14:23:07.854Z,11.80
2019-03-31T14:25:36.936Z,11.43
2019-03-31T14:28:05.890Z,12.03
2019-03-31T14:30:34.822Z,12.20
2019-03-31T14:33:03.833Z,12.50
2019-03-31T14:35:33.068Z,13.33
2019-03-31T14:38:01.991Z,13.20
2019-03-31T14:40:31.142Z,13.10
2019-03-31T14:43:00.358Z,15.77
2019-03-31T14:45:30.120Z,13.53
2019-03-31T14:47:59.143Z,14.73
2019-03-31T14:50:31.556Z,13.40
2019-03-31T14:53:00.530Z,14.33
2019-03-31T14:55:29.619Z,14.93
2019-03-31T14:57:58.726Z,14.57
2019-03-31T15:00:27.740Z,14.80
2019-03-31T15:02:56.640Z,13.90
2019-03-31T15:05:26.082Z,14.30
2019-03-31T15:07:58.329Z,14.40
2019-03-31T15:10:25.822Z,16.52
2019-03-31T15:12:54.763Z,16.27
2019-03-31T15:15:23.940Z,16.33
2019-03-31T15:17:52.960Z,14.17
2019-03-31T15:20:21.999Z,12.60
2019-03-31T15:22:51.638Z,12.70
2019-03-31T15:25:20.695Z,15.17
2019-03-31T15:27:49.574Z,17.90
2019-03-31T15:30:18.622Z,16.17
2019-03-31T15:32:47.490Z,16.97
2019-03-31T15:35:16.392Z,17.50
2019-03-31T15:37:45.421Z,17.43
2019-03-31T15:40:14.490Z,18.07
2019-03-31T15:42:43.526Z,14.40
2019-03-31T15:45:12.476Z,14.17
2019-03-31T15:47:41.426Z,15.70
2019-03-31T15:50:10.827Z,17.43
2019-03-31T15:52:40.113Z,16.27
2019-03-31T15:55:09.284Z,16.77
2019-03-31T15:57:38.578Z,16.83
2019-03-31T16:00:08.489Z,18.40
2019-03-31T16:02:37.439Z,17.90
2019-03-31T16:05:06.781Z,16.30
2019-03-31T16:07:35.829Z,17.50
2019-03-31T16:10:05.283Z,17.40
2019-03-31T16:12:34.037Z,17.63
2019-03-31T16:15:02.731Z,16.27
2019-03-31T16:17:31.484Z,15.43
2019-03-31T16:20:00.368Z,15.87
2019-03-31T16:22:29.043Z,18.17
2019-03-31T16:24:58.771Z,16.77
2019-03-31T16:27:27.511Z,16.20
2019-03-31T16:29:56.246Z,16.57
2019-03-31T16:32:24.971Z,16.80
2019-03-31T16:34:53.961Z,15.73
2019-03-31T16:37:22.563Z,18.50
2019-03-31T16:39:51.374Z,16.17
2019-03-31T16:42:20.039Z,17.90
2019-03-31T16:44:58.045Z,16.77
2019-03-31T16:47:19.192Z,17.97
2019-03-31T16:49:47.848Z,17.20
2019-03-31T16:52:16.867Z,17.63
2019-03-31T16:54:45.710Z,18.77
2019-03-31T16:57:14.415Z,17.77
2019-03-31T16:59:43.523Z,15.80
2019-03-31T17:02:12.246Z,14.70
2019-03-31T17:04:40.906Z,17.93
2019-03-31T17:07:09.543Z,14.87
2019-03-31T17:09:50.862Z,16.00
2019-03-31T17:12:08.825Z,14.30
2019-03-31T17:14:37.432Z,16.83
2019-03-31T17:17:06.190Z,17.13
2019-03-31T17:19:34.868Z,14.27
2019-03-31T17:22:03.783Z,14.73
2019-03-31T17:24:32.617Z,12.93
2019-03-31T17:27:01.230Z,15.10
2019-03-31T17:29:29.921Z,15.30
2019-03-31T17:31:58.633Z,15.47
2019-03-31T17:34:27.225Z,13.67
2019-03-31T17:36:55.891Z,13.70
2019-03-31T17:39:24.920Z,12.43
2019-03-31T17:41:53.704Z,13.17
2019-03-31T17:44:22.551Z,14.30
2019-03-31T17:46:51.381Z,16.43
2019-03-31T17:49:20.077Z,13.57
2019-03-31T17:51:48.777Z,13.47
2019-03-31T17:54:17.478Z,15.13
2019-03-31T17:56:46.298Z,14.17
2019-03-31T17:59:15.279Z,13.30
2019-03-31T18:01:43.979Z,13.63
2019-03-31T18:04:12.892Z,14.27
2019-03-31T18:06:41.829Z,12.47
2019-03-31T18:09:10.700Z,12.30
2019-03-31T18:11:39.491Z,13.47
2019-03-31T18:14:08.305Z,13.70
2019-03-31T18:16:37.000Z,11.83
2019-03-31T18:19:05.653Z,14.63
2019-03-31T18:21:34.309Z,15.30
2019-03-31T18:24:03.038Z,12.47
2019-03-31T18:26:31.975Z,12.83
2019-03-31T18:29:00.676Z,13.60
2019-03-31T18:31:29.408Z,14.47
2019-03-31T18:33:58.205Z,13.50
2019-03-31T18:36:36.416Z,14.00
2019-03-31T18:38:57.446Z,13.93
2019-03-31T18:41:26.200Z,12.50
2019-03-31T18:43:54.892Z,13.90
2019-03-31T18:46:23.508Z,12.03
2019-03-31T18:48:52.213Z,13.00
2019-03-31T18:51:20.886Z,12.60
2019-03-31T18:54:14.554Z,12.87
2019-03-31T18:56:54.868Z,13.63
2019-03-31T18:59:41.206Z,12.03
2019-03-31T19:02:40.824Z,14.57
2019-03-31T19:05:29.378Z,14.13
2019-03-31T19:08:05.270Z,11.97
2019-03-31T19:11:01.963Z,13.17
2019-03-31T19:13:55.358Z,13.33
2019-03-31T19:16:35.832Z,12.43
2019-03-31T19:19:22.215Z,14.93
2019-03-31T19:22:03.356Z,13.60
2019-03-31T19:24:54.840Z,14.93
2019-03-31T19:27:35.536Z,13.23
2019-03-31T19:30:23.296Z,14.03
2019-03-31T19:33:20.002Z,15.97
2019-03-31T19:36:16.896Z,15.83
2019-03-31T19:39:04.579Z,14.17
2019-03-31T19:41:47.720Z,14.17
2019-03-31T19:44:33.575Z,13.43
2019-03-31T19:47:20.162Z,13.23
2019-03-31T19:50:03.501Z,13.00
2019-03-31T19:52:42.696Z,12.53
2019-03-31T19:55:27.593Z,12.50
2019-03-31T19:58:15.395Z,13.40
2019-03-31T20:01:05.900Z,13.27
2019-03-31T20:03:53.581Z,12.33
2019-03-31T20:06:40.204Z,13.27
2019-03-31T20:09:40.074Z,13.33
2019-03-31T20:12:27.875Z,12.23
2019-03-31T20:15:11.971Z,13.77
2019-03-31T20:18:00.665Z,12.93
2019-03-31T20:20:35.767Z,13.03
2019-03-31T20:23:32.884Z,12.07
2019-03-31T20:26:32.583Z,12.50
2019-03-31T20:29:12.599Z,14.83
2019-03-31T20:31:59.028Z,16.23
2019-03-31T20:34:55.798Z,17.23
2019-03-31T20:37:48.365Z,14.43
2019-03-31T20:40:39.717Z,17.33
2019-03-31T20:43:18.835Z,15.80
2019-03-31T20:45:47.771Z,14.03
2019-03-31T20:48:16.509Z,15.07
2019-03-31T20:50:45.359Z,14.17
2019-03-31T20:53:14.156Z,17.03
2019-03-31T20:55:42.895Z,13.77
2019-03-31T20:58:11.607Z,14.77
2019-03-31T21:00:40.465Z,14.70
2019-03-31T21:03:09.137Z,12.07
2019-03-31T21:05:37.795Z,14.33
2019-03-31T21:08:06.467Z,13.63
2019-03-31T21:10:35.425Z,13.47
2019-03-31T21:13:04.290Z,13.30
2019-03-31T21:15:32.974Z,13.20
2019-03-31T21:18:01.863Z,12.87
2019-03-31T21:20:30.523Z,14.87
2019-03-31T21:22:59.435Z,17.20
2019-03-31T21:25:28.066Z,16.83
2019-03-31T21:27:56.836Z,17.77
2019-03-31T21:30:25.639Z,16.27
2019-03-31T21:32:54.383Z,15.00
2019-03-31T21:35:24.927Z,15.43
2019-03-31T21:37:53.568Z,16.27
2019-03-31T21:40:22.225Z,15.20
2019-03-31T21:42:51.141Z,13.27
2019-03-31T21:45:19.799Z,12.83
2019-03-31T21:47:48.671Z,14.97
2019-03-31T21:50:17.423Z,13.27
2019-03-31T21:52:46.139Z,12.37
2019-03-31T21:55:14.749Z,13.30
2019-03-31T21:57:43.679Z,13.77
2019-03-31T22:00:12.653Z,15.53
2019-03-31T22:02:41.835Z,13.37
2019-03-31T22:05:10.753Z,14.70
2019-03-31T22:07:39.488Z,14.03
2019-03-31T22:10:08.552Z,14.90
2019-03-31T22:12:37.182Z,16.83
2019-03-31T22:15:06.034Z,13.87
2019-03-31T22:17:34.649Z,13.67
2019-03-31T22:20:03.432Z,14.50
2019-03-31T22:22:32.147Z,14.03
2019-03-31T22:25:00.907Z,14.07
2019-03-31T22:27:29.591Z,16.90
2019-03-31T22:29:58.444Z,13.90
2019-03-31T22:32:27.088Z,14.83
2019-03-31T22:34:55.842Z,14.20
2019-03-31T22:37:24.562Z,14.20
2019-03-31T22:39:53.548Z,16.40
2019-03-31T22:42:22.220Z,14.43
2019-03-31T22:44:50.975Z,14.07
2019-03-31T22:47:19.703Z,13.37
2019-03-31T22:49:48.400Z,14.13
2019-03-31T22:52:16.995Z,14.00
2019-03-31T22:54:46.150Z,14.63
2019-03-31T22:57:15.122Z,12.80
2019-03-31T22:59:43.868Z,16.53
2019-03-31T23:02:12.590Z,13.60
2019-03-31T23:04:41.242Z,16.70
2019-03-31T23:07:10.066Z,15.47
2019-03-31T23:09:38.678Z,13.80
2019-03-31T23:12:07.372Z,15.33
2019-03-31T23:14:36.071Z,14.57
2019-03-31T23:17:04.954Z,14.73
2019-03-31T23:19:33.814Z,15.83
2019-03-31T23:22:02.787Z,15.07
2019-03-31T23:24:31.896Z,14.90
2019-03-31T23:27:00.738Z,15.80
2019-03-31T23:29:29.346Z,15.23
2019-03-31T23:31:57.934Z,14.63
2019-03-31T23:34:26.595Z,13.53
2019-03-31T23:36:55.419Z,19.47
2019-03-31T23:39:24.038Z,14.43
2019-03-31T23:41:52.830Z,13.10
2019-03-31T23:44:21.567Z,13.70
2019-03-31T23:46:50.359Z,13.43
2019-03-31T23:49:19.043Z,14.70
2019-03-31T23:51:47.685Z,14.13
2019-03-31T23:54:16.547Z,14.57
2019-03-31T23:56:45.340Z,13.00
2019-03-31T23:59:14.090Z,12.77
